createdAt,value
2019-05-20T00:00:50.325Z,14.24
2019-05-20T00:07:20.993Z,14.05
2019-05-20T00:13:57.903Z,14.03
2019-05-20T00:24:04.950Z,13.83
2019-05-20T00:29:54.594Z,13.71
2019-05-20T00:36:22.234Z,13.61
2019-05-20T00:42:49.312Z,13.41
2019-05-20T00:49:30.235Z,13.29
2019-05-20T00:55:56.067Z,13.40
2019-05-20T01:02:23.655Z,13.16
2019-05-20T01:09:04.670Z,13.11
2019-05-20T01:15:31.694Z,13.07
2019-05-20T01:25:33.451Z,13.00
2019-05-20T01:32:00.119Z,12.90
2019-05-20T01:38:28.323Z,12.90
2019-05-20T01:45:09.297Z,12.78
2019-05-20T01:51:39.790Z,12.72
2019-05-20T01:58:05.639Z,12.70
2019-05-20T02:04:44.934Z,12.57
2019-05-20T02:11:07.586Z,12.55
2019-05-20T02:17:32.533Z,12.35
2019-05-20T02:27:22.384Z,12.26
2019-05-20T02:33:52.773Z,12.31
2019-05-20T02:40:32.984Z,12.30
2019-05-20T02:47:03.086Z,12.14
2019-05-20T02:53:27.883Z,12.05
2019-05-20T03:00:08.855Z,12.09
2019-05-20T03:06:34.671Z,12.12
2019-05-20T03:13:02.308Z,12.19
2019-05-20T03:19:39.216Z,12.22
2019-05-20T03:29:10.615Z,12.19
2019-05-20T03:35:12.686Z,12.19
2019-05-20T03:41:38.505Z,12.10
2019-05-20T03:48:04.335Z,12.16
2019-05-20T03:54:47.879Z,12.09
2019-05-20T04:01:18.184Z,12.09
2019-05-20T04:07:44.006Z,12.05
2019-05-20T04:14:09.826Z,12.03
2019-05-20T04:20:52.816Z,12.03
2019-05-20T04:30:31.351Z,12.03
2019-05-20T04:36:55.978Z,12.07
2019-05-20T04:43:21.818Z,12.06
2019-05-20T04:49:47.992Z,12.08
2019-05-20T04:56:31.995Z,12.10
2019-05-20T05:02:56.574Z,12.08
2019-05-20T05:09:22.420Z,12.11
2019-05-20T05:15:59.327Z,12.14
2019-05-20T05:22:29.418Z,12.25
2019-05-20T05:32:07.135Z,12.42
2019-05-20T05:38:33.969Z,12.50
2019-05-20T05:45:00.798Z,12.54
2019-05-20T05:51:39.531Z,12.58
2019-05-20T05:57:54.455Z,12.79
2019-05-20T06:04:23.030Z,12.97
2019-05-20T06:11:02.256Z,13.13
2019-05-20T06:17:34.138Z,13.32
2019-05-20T06:24:06.299Z,13.43
2019-05-20T06:33:31.614Z,13.75
2019-05-20T06:40:02.482Z,13.90
2019-05-20T06:46:40.424Z,14.02
2019-05-20T06:53:04.228Z,14.20
2019-05-20T06:59:31.840Z,14.31
2019-05-20T07:05:57.692Z,14.42
2019-05-20T07:12:22.695Z,14.45
2019-05-20T07:18:52.560Z,14.52
2019-05-20T07:25:18.426Z,14.61
2019-05-20T07:31:40.151Z,14.73
2019-05-20T07:37:52.609Z,14.75
2019-05-20T07:44:18.453Z,14.89
2019-05-20T07:50:47.540Z,14.99
2019-05-20T07:57:28.498Z,15.19
2019-05-20T08:03:54.317Z,15.29
2019-05-20T08:10:20.135Z,15.53
2019-05-20T08:16:57.067Z,15.62
2019-05-20T08:23:22.887Z,15.72
2019-05-20T08:29:52.749Z,15.84
2019-05-20T08:39:53.485Z,15.90
2019-05-20T08:46:20.524Z,15.94
2019-05-20T08:52:59.477Z,16.03
2019-05-20T08:59:29.047Z,16.15
2019-05-20T09:05:55.157Z,16.26
2019-05-20T09:12:32.101Z,16.26
2019-05-20T09:18:55.889Z,16.42
2019-05-20T09:25:25.152Z,16.55
2019-05-20T09:31:41.473Z,16.63
2019-05-20T09:41:06.832Z,16.69
2019-05-20T09:47:32.694Z,16.77
2019-05-20T09:54:01.417Z,16.84
2019-05-20T10:00:29.585Z,17.03
2019-05-20T10:06:55.146Z,17.05
2019-05-20T10:13:40.250Z,17.20
2019-05-20T10:20:09.787Z,17.31
2019-05-20T10:26:39.090Z,17.44
2019-05-20T10:32:41.705Z,17.47
2019-05-20T10:43:07.716Z,17.44
2019-05-20T10:49:31.564Z,17.47
2019-05-20T10:55:55.314Z,17.57
2019-05-20T11:02:23.361Z,17.70
2019-05-20T11:09:13.119Z,17.74
2019-05-20T11:15:29.131Z,17.71
2019-05-20T11:21:31.335Z,17.75
2019-05-20T11:27:57.535Z,17.70
2019-05-20T11:34:34.515Z,17.54
2019-05-20T11:44:40.482Z,17.38
2019-05-20T11:51:11.337Z,17.23
2019-05-20T11:57:37.156Z,17.23
2019-05-20T12:04:16.112Z,17.16
2019-05-20T12:10:44.600Z,17.14
2019-05-20T12:17:14.818Z,17.15
2019-05-20T12:23:19.178Z,17.16
2019-05-20T12:30:02.444Z,17.21
2019-05-20T12:36:30.056Z,17.25
2019-05-20T12:46:35.229Z,17.46
2019-05-20T12:52:59.047Z,17.52
2019-05-20T12:59:35.751Z,17.52
2019-05-20T13:06:01.613Z,17.73
2019-05-20T13:12:26.603Z,17.75
2019-05-20T13:18:56.103Z,17.62
2019-05-20T13:24:55.801Z,17.66
2019-05-20T13:31:19.625Z,17.59
2019-05-20T13:37:46.659Z,17.75
2019-05-20T13:47:52.653Z,17.83
2019-05-20T13:54:19.523Z,17.82
2019-05-20T14:00:47.334Z,17.81
2019-05-20T14:07:12.908Z,17.76
2019-05-20T14:13:38.763Z,17.82
2019-05-20T14:20:21.816Z,17.84
2019-05-20T14:26:48.786Z,17.88
2019-05-20T14:33:14.607Z,17.83
2019-05-20T14:39:53.557Z,17.86
2019-05-20T14:46:06.048Z,17.73
2019-05-20T14:52:33.083Z,17.70
2019-05-20T14:59:02.931Z,17.57
2019-05-20T15:05:40.192Z,17.58
2019-05-20T15:12:09.501Z,17.51
2019-05-20T15:18:33.311Z,17.44
2019-05-20T15:24:35.105Z,17.34
2019-05-20T15:31:14.771Z,17.24
2019-05-20T15:37:40.889Z,17.21
2019-05-20T15:44:06.713Z,17.18
2019-05-20T15:54:13.725Z,17.15
2019-05-20T16:00:52.462Z,17.13
2019-05-20T16:06:42.135Z,17.08
2019-05-20T16:13:07.707Z,17.16
2019-05-20T16:19:33.557Z,17.17
2019-05-20T16:26:12.515Z,17.19
2019-05-20T16:32:41.236Z,17.23
2019-05-20T16:39:11.430Z,17.24
2019-05-20T16:45:52.398Z,17.28
2019-05-20T16:55:55.136Z,17.37
2019-05-20T17:02:25.889Z,17.28
2019-05-20T17:09:05.189Z,17.34
2019-05-20T17:15:33.030Z,17.27
2019-05-20T17:21:58.849Z,17.27
2019-05-20T17:28:24.445Z,17.26
2019-05-20T17:34:48.248Z,17.10
2019-05-20T17:41:25.425Z,17.17
2019-05-20T17:47:55.111Z,17.07
2019-05-20T17:57:56.215Z,16.91
2019-05-20T18:04:23.062Z,16.88
2019-05-20T18:10:50.878Z,16.75
2019-05-20T18:17:30.755Z,16.75
2019-05-20T18:23:55.658Z,16.67
2019-05-20T18:30:28.535Z,16.53
2019-05-20T18:37:09.196Z,16.50
2019-05-20T18:43:37.357Z,16.39
2019-05-20T18:50:02.939Z,16.39
2019-05-20T19:02:14.417Z,16.17
2019-05-20T19:08:57.403Z,16.14
2019-05-20T19:14:46.861Z,16.06
2019-05-20T19:21:12.682Z,16.09
2019-05-20T19:27:51.627Z,16.08
2019-05-20T19:34:17.454Z,15.98
2019-05-20T19:40:43.043Z,15.99
2019-05-20T19:47:26.912Z,15.72
2019-05-20T19:53:55.114Z,15.70
2019-05-20T20:00:20.927Z,15.66
2019-05-20T20:06:57.854Z,15.63
2019-05-20T20:16:30.528Z,15.45
2019-05-20T20:22:23.026Z,15.43
2019-05-20T20:28:49.548Z,15.42
2019-05-20T20:35:17.685Z,15.38
2019-05-20T20:41:43.290Z,15.28
2019-05-20T20:48:22.249Z,15.23
2019-05-20T20:54:49.285Z,15.11
2019-05-20T21:01:15.105Z,15.02
2019-05-20T21:07:54.056Z,14.94
2019-05-20T21:17:32.786Z,14.96
2019-05-20T21:24:00.403Z,14.90
2019-05-20T21:30:31.161Z,14.86
2019-05-20T21:36:59.335Z,14.81
2019-05-20T21:43:36.265Z,14.80
2019-05-20T21:50:03.867Z,14.80
2019-05-20T21:56:29.720Z,14.73
2019-05-20T22:03:06.627Z,14.68
2019-05-20T22:06:19.765Z,14.70
2019-05-20T22:12:56.470Z,14.67
2019-05-20T22:18:46.151Z,14.68
2019-05-20T22:25:11.972Z,14.74
2019-05-20T22:31:59.022Z,14.76
2019-05-20T22:38:39.976Z,14.76
2019-05-20T22:45:06.803Z,14.79
2019-05-20T22:51:32.378Z,14.78
2019-05-20T22:57:56.180Z,14.69
2019-05-20T23:04:35.138Z,14.69
2019-05-20T23:11:00.995Z,14.64
2019-05-20T23:20:38.917Z,14.61
2019-05-20T23:27:06.783Z,14.61
2019-05-20T23:33:32.574Z,14.58
2019-05-20T23:40:13.287Z,14.57
2019-05-20T23:46:42.007Z,14.51
2019-05-20T23:53:08.214Z,14.52
2019-05-20T23:59:50.916Z,14.40
